sensor_id;sensor_type;location;lat;lon;timestamp;temperature;humidity
19172;DHT22;9718;52.200;21.052;2022-09-09T00:04:19;11.90;99.90
19172;DHT22;9718;52.200;21.052;2022-09-09T00:07:03;11.80;99.90
19172;DHT22;9718;52.200;21.052;2022-09-09T00:09:46;11.80;99.90
19172;DHT22;9718;52.200;21.052;2022-09-09T00:15:07;11.70;99.90
19172;DHT22;9718;52.200;21.052;2022-09-09T00:20:53;11.70;99.90
19172;DHT22;9718;52.200;21.052;2022-09-09T00:28:45;11.70;99.90
19172;DHT22;9718;52.200;21.052;2022-09-09T00:31:26;11.70;99.90
19172;DHT22;9718;52.200;21.052;2022-09-09T00:34:00;11.60;99.90
19172;DHT22;9718;52.200;21.052;2022-09-09T00:36:31;11.60;99.90
19172;DHT22;9718;52.200;21.052;2022-09-09T00:39:01;11.60;99.90
19172;DHT22;9718;52.200;21.052;2022-09-09T00:47:00;11.60;99.90
19172;DHT22;9718;52.200;21.052;2022-09-09T00:49:58;11.60;99.90
19172;DHT22;9718;52.200;21.052;2022-09-09T00:55:34;11.60;99.90
19172;DHT22;9718;52.200;21.052;2022-09-09T00:58:07;11.60;99.90
19172;DHT22;9718;52.200;21.052;2022-09-09T01:00:45;11.70;99.90
19172;DHT22;9718;52.200;21.052;2022-09-09T01:03:29;11.70;99.90
19172;DHT22;9718;52.200;21.052;2022-09-09T01:11:58;11.70;99.90
19172;DHT22;9718;52.200;21.052;2022-09-09T01:17:04;11.60;99.90
19172;DHT22;9718;52.200;21.052;2022-09-09T01:22:26;11.60;99.90
19172;DHT22;9718;52.200;21.052;2022-09-09T01:27:37;11.60;99.90
19172;DHT22;9718;52.200;21.052;2022-09-09T01:30:15;11.60;99.90
19172;DHT22;9718;52.200;21.052;2022-09-09T01:32:45;11.60;99.90
19172;DHT22;9718;52.200;21.052;2022-09-09T01:35:42;11.70;99.90
19172;DHT22;9718;52.200;21.052;2022-09-09T01:38:12;11.60;99.90
19172;DHT22;9718;52.200;21.052;2022-09-09T01:40:41;11.70;99.90
19172;DHT22;9718;52.200;21.052;2022-09-09T01:43:08;11.70;99.90
19172;DHT22;9718;52.200;21.052;2022-09-09T01:45:37;11.70;99.90
19172;DHT22;9718;52.200;21.052;2022-09-09T01:48:05;11.70;99.90
19172;DHT22;9718;52.200;21.052;2022-09-09T01:50:32;11.70;99.90
19172;DHT22;9718;52.200;21.052;2022-09-09T01:53:01;11.70;99.90
19172;DHT22;9718;52.200;21.052;2022-09-09T01:55:37;11.70;99.90
19172;DHT22;9718;52.200;21.052;2022-09-09T01:58:15;11.70;99.90
19172;DHT22;9718;52.200;21.052;2022-09-09T02:03:36;11.70;99.90
19172;DHT22;9718;52.200;21.052;2022-09-09T02:06:14;11.70;99.90
19172;DHT22;9718;52.200;21.052;2022-09-09T02:08:49;11.70;99.90
19172;DHT22;9718;52.200;21.052;2022-09-09T02:11:19;11.70;99.90
19172;DHT22;9718;52.200;21.052;2022-09-09T02:13:48;11.70;99.90
19172;DHT22;9718;52.200;21.052;2022-09-09T02:16:24;11.80;99.90
19172;DHT22;9718;52.200;21.052;2022-09-09T02:19:10;11.80;99.90
19172;DHT22;9718;52.200;21.052;2022-09-09T02:21:42;11.90;99.90
19172;DHT22;9718;52.200;21.052;2022-09-09T02:24:13;11.80;99.90
19172;DHT22;9718;52.200;21.052;2022-09-09T02:26:43;11.80;99.90
19172;DHT22;9718;52.200;21.052;2022-09-09T02:29:19;11.80;99.90
19172;DHT22;9718;52.200;21.052;2022-09-09T02:31:50;11.70;99.90
19172;DHT22;9718;52.200;21.052;2022-09-09T02:34:20;11.70;99.90
19172;DHT22;9718;52.200;21.052;2022-09-09T02:36:51;11.70;99.90
19172;DHT22;9718;52.200;21.052;2022-09-09T02:39:20;11.70;99.90
19172;DHT22;9718;52.200;21.052;2022-09-09T02:41:48;11.70;99.90
19172;DHT22;9718;52.200;21.052;2022-09-09T02:44:17;11.70;99.90
19172;DHT22;9718;52.200;21.052;2022-09-09T02:50:27;11.80;99.90
19172;DHT22;9718;52.200;21.052;2022-09-09T02:55:48;11.80;99.90
19172;DHT22;9718;52.200;21.052;2022-09-09T02:58:18;11.80;99.90
19172;DHT22;9718;52.200;21.052;2022-09-09T03:00:48;11.80;99.90
19172;DHT22;9718;52.200;21.052;2022-09-09T03:03:18;11.80;99.90
19172;DHT22;9718;52.200;21.052;2022-09-09T03:05:48;11.70;99.90
19172;DHT22;9718;52.200;21.052;2022-09-09T03:08:20;11.90;99.90
19172;DHT22;9718;52.200;21.052;2022-09-09T03:10:51;11.90;99.90
19172;DHT22;9718;52.200;21.052;2022-09-09T03:13:21;11.80;99.90
19172;DHT22;9718;52.200;21.052;2022-09-09T03:15:48;11.80;99.90
19172;DHT22;9718;52.200;21.052;2022-09-09T03:18:16;11.80;99.90
19172;DHT22;9718;52.200;21.052;2022-09-09T03:20:43;11.90;99.90
19172;DHT22;9718;52.200;21.052;2022-09-09T03:23:10;11.90;99.90
19172;DHT22;9718;52.200;21.052;2022-09-09T03:25:51;11.90;99.90
19172;DHT22;9718;52.200;21.052;2022-09-09T03:28:19;11.90;99.90
19172;DHT22;9718;52.200;21.052;2022-09-09T03:30:48;11.80;99.90
19172;DHT22;9718;52.200;21.052;2022-09-09T03:33:15;11.80;99.90
19172;DHT22;9718;52.200;21.052;2022-09-09T03:35:46;11.80;99.90
19172;DHT22;9718;52.200;21.052;2022-09-09T03:38:17;11.80;99.90
19172;DHT22;9718;52.200;21.052;2022-09-09T03:40:49;11.80;99.90
19172;DHT22;9718;52.200;21.052;2022-09-09T03:43:17;11.90;99.90
19172;DHT22;9718;52.200;21.052;2022-09-09T03:45:48;11.90;99.90
19172;DHT22;9718;52.200;21.052;2022-09-09T03:48:16;11.90;99.90
19172;DHT22;9718;52.200;21.052;2022-09-09T03:50:45;11.90;99.90
19172;DHT22;9718;52.200;21.052;2022-09-09T03:53:14;12.00;99.90
19172;DHT22;9718;52.200;21.052;2022-09-09T03:55:50;12.00;99.90
19172;DHT22;9718;52.200;21.052;2022-09-09T03:58:20;12.00;99.90
19172;DHT22;9718;52.200;21.052;2022-09-09T04:00:57;12.00;99.90
19172;DHT22;9718;52.200;21.052;2022-09-09T04:03:27;12.00;99.90
19172;DHT22;9718;52.200;21.052;2022-09-09T04:05:55;12.10;99.90
19172;DHT22;9718;52.200;21.052;2022-09-09T04:08:23;12.00;99.90
19172;DHT22;9718;52.200;21.052;2022-09-09T04:10:54;12.00;99.90
19172;DHT22;9718;52.200;21.052;2022-09-09T04:13:26;12.10;99.90
19172;DHT22;9718;52.200;21.052;2022-09-09T04:15:56;12.10;99.90
19172;DHT22;9718;52.200;21.052;2022-09-09T04:18:25;12.00;99.90
19172;DHT22;9718;52.200;21.052;2022-09-09T04:20:56;12.00;99.90
19172;DHT22;9718;52.200;21.052;2022-09-09T04:23:26;12.10;99.90
19172;DHT22;9718;52.200;21.052;2022-09-09T04:25:58;12.10;99.90
19172;DHT22;9718;52.200;21.052;2022-09-09T04:28:28;12.10;99.90
19172;DHT22;9718;52.200;21.052;2022-09-09T04:30:56;12.20;99.90
19172;DHT22;9718;52.200;21.052;2022-09-09T04:33:30;12.10;99.90
19172;DHT22;9718;52.200;21.052;2022-09-09T04:36:02;12.10;99.90
19172;DHT22;9718;52.200;21.052;2022-09-09T04:38:32;12.10;99.90
19172;DHT22;9718;52.200;21.052;2022-09-09T04:41:00;12.10;99.90
19172;DHT22;9718;52.200;21.052;2022-09-09T04:43:28;12.20;99.90
19172;DHT22;9718;52.200;21.052;2022-09-09T04:45:58;12.20;99.90
19172;DHT22;9718;52.200;21.052;2022-09-09T04:48:26;12.20;99.90
19172;DHT22;9718;52.200;21.052;2022-09-09T04:51:06;12.20;99.90
19172;DHT22;9718;52.200;21.052;2022-09-09T04:53:36;12.30;99.90
19172;DHT22;9718;52.200;21.052;2022-09-09T04:56:07;12.30;99.90
19172;DHT22;9718;52.200;21.052;2022-09-09T04:58:36;12.30;99.90
19172;DHT22;9718;52.200;21.052;2022-09-09T05:01:09;12.40;99.90
19172;DHT22;9718;52.200;21.052;2022-09-09T05:03:37;12.40;99.90
19172;DHT22;9718;52.200;21.052;2022-09-09T05:06:07;12.40;99.90
19172;DHT22;9718;52.200;21.052;2022-09-09T05:08:37;12.40;99.90
19172;DHT22;9718;52.200;21.052;2022-09-09T05:11:25;12.40;99.90
19172;DHT22;9718;52.200;21.052;2022-09-09T05:14:05;12.40;99.90
19172;DHT22;9718;52.200;21.052;2022-09-09T05:16:33;12.40;99.90
19172;DHT22;9718;52.200;21.052;2022-09-09T05:19:00;12.40;99.90
19172;DHT22;9718;52.200;21.052;2022-09-09T05:21:30;12.50;99.90
19172;DHT22;9718;52.200;21.052;2022-09-09T05:23:58;12.40;99.90
19172;DHT22;9718;52.200;21.052;2022-09-09T05:26:27;12.40;99.90
19172;DHT22;9718;52.200;21.052;2022-09-09T05:28:56;12.40;99.90
19172;DHT22;9718;52.200;21.052;2022-09-09T05:31:23;12.50;99.90
19172;DHT22;9718;52.200;21.052;2022-09-09T05:33:53;12.40;99.90
19172;DHT22;9718;52.200;21.052;2022-09-09T05:36:24;12.50;99.90
19172;DHT22;9718;52.200;21.052;2022-09-09T05:38:52;12.50;99.90
19172;DHT22;9718;52.200;21.052;2022-09-09T05:41:21;12.50;99.90
19172;DHT22;9718;52.200;21.052;2022-09-09T05:43:51;12.50;99.90
19172;DHT22;9718;52.200;21.052;2022-09-09T05:46:20;12.60;99.90
19172;DHT22;9718;52.200;21.052;2022-09-09T05:48:55;12.60;99.90
19172;DHT22;9718;52.200;21.052;2022-09-09T05:51:25;12.60;99.90
19172;DHT22;9718;52.200;21.052;2022-09-09T05:53:55;12.60;99.90
19172;DHT22;9718;52.200;21.052;2022-09-09T05:56:37;12.60;99.90
19172;DHT22;9718;52.200;21.052;2022-09-09T05:59:04;12.60;99.90
19172;DHT22;9718;52.200;21.052;2022-09-09T06:01:36;12.60;99.90
19172;DHT22;9718;52.200;21.052;2022-09-09T06:04:08;12.70;99.90
19172;DHT22;9718;52.200;21.052;2022-09-09T06:06:37;12.70;99.90
19172;DHT22;9718;52.200;21.052;2022-09-09T06:09:07;12.70;99.90
19172;DHT22;9718;52.200;21.052;2022-09-09T06:11:38;12.80;99.90
19172;DHT22;9718;52.200;21.052;2022-09-09T06:14:06;12.80;99.90
19172;DHT22;9718;52.200;21.052;2022-09-09T06:16:34;12.90;99.90
19172;DHT22;9718;52.200;21.052;2022-09-09T06:19:02;12.90;99.90
19172;DHT22;9718;52.200;21.052;2022-09-09T06:21:32;12.90;99.90
19172;DHT22;9718;52.200;21.052;2022-09-09T06:24:02;13.00;99.90
19172;DHT22;9718;52.200;21.052;2022-09-09T06:26:35;13.00;99.90
19172;DHT22;9718;52.200;21.052;2022-09-09T06:29:03;13.00;99.90
19172;DHT22;9718;52.200;21.052;2022-09-09T06:31:33;13.00;99.90
19172;DHT22;9718;52.200;21.052;2022-09-09T06:34:02;13.00;99.90
19172;DHT22;9718;52.200;21.052;2022-09-09T06:36:32;13.00;99.90
19172;DHT22;9718;52.200;21.052;2022-09-09T06:39:01;13.00;99.90
19172;DHT22;9718;52.200;21.052;2022-09-09T06:41:30;13.00;99.90
19172;DHT22;9718;52.200;21.052;2022-09-09T06:43:57;13.00;99.90
19172;DHT22;9718;52.200;21.052;2022-09-09T06:46:27;13.00;99.90
19172;DHT22;9718;52.200;21.052;2022-09-09T06:48:55;13.10;99.90
19172;DHT22;9718;52.200;21.052;2022-09-09T06:51:29;13.20;99.90
19172;DHT22;9718;52.200;21.052;2022-09-09T06:53:58;13.10;99.90
19172;DHT22;9718;52.200;21.052;2022-09-09T06:56:32;13.10;99.90
19172;DHT22;9718;52.200;21.052;2022-09-09T06:59:03;13.10;99.90
19172;DHT22;9718;52.200;21.052;2022-09-09T07:01:36;13.10;99.90
19172;DHT22;9718;52.200;21.052;2022-09-09T07:04:04;13.00;99.90
19172;DHT22;9718;52.200;21.052;2022-09-09T07:06:42;13.10;99.90
19172;DHT22;9718;52.200;21.052;2022-09-09T07:09:12;13.20;99.90
19172;DHT22;9718;52.200;21.052;2022-09-09T07:11:45;13.10;99.90
19172;DHT22;9718;52.200;21.052;2022-09-09T07:14:14;13.00;99.90
19172;DHT22;9718;52.200;21.052;2022-09-09T07:16:42;12.90;99.90
19172;DHT22;9718;52.200;21.052;2022-09-09T07:19:10;13.00;99.90
19172;DHT22;9718;52.200;21.052;2022-09-09T07:21:38;13.10;99.90
19172;DHT22;9718;52.200;21.052;2022-09-09T07:24:07;13.10;99.90
19172;DHT22;9718;52.200;21.052;2022-09-09T07:26:38;13.20;99.90
19172;DHT22;9718;52.200;21.052;2022-09-09T07:29:08;13.30;99.90
19172;DHT22;9718;52.200;21.052;2022-09-09T07:31:37;13.20;99.90
19172;DHT22;9718;52.200;21.052;2022-09-09T07:34:07;13.20;99.90
19172;DHT22;9718;52.200;21.052;2022-09-09T07:36:37;13.20;99.90
19172;DHT22;9718;52.200;21.052;2022-09-09T07:39:10;13.20;99.90
19172;DHT22;9718;52.200;21.052;2022-09-09T07:41:41;13.20;99.90
19172;DHT22;9718;52.200;21.052;2022-09-09T07:44:15;13.20;99.90
19172;DHT22;9718;52.200;21.052;2022-09-09T07:46:43;13.20;99.90
19172;DHT22;9718;52.200;21.052;2022-09-09T07:49:12;13.30;99.90
19172;DHT22;9718;52.200;21.052;2022-09-09T07:51:42;13.20;99.90
19172;DHT22;9718;52.200;21.052;2022-09-09T07:54:12;13.20;99.90
19172;DHT22;9718;52.200;21.052;2022-09-09T07:56:43;13.30;99.90
19172;DHT22;9718;52.200;21.052;2022-09-09T07:59:22;13.30;99.90
19172;DHT22;9718;52.200;21.052;2022-09-09T08:01:51;13.30;99.90
19172;DHT22;9718;52.200;21.052;2022-09-09T08:04:23;13.30;99.90
19172;DHT22;9718;52.200;21.052;2022-09-09T08:06:53;13.30;99.90
19172;DHT22;9718;52.200;21.052;2022-09-09T08:09:22;13.30;99.90
19172;DHT22;9718;52.200;21.052;2022-09-09T08:11:52;13.30;99.90
19172;DHT22;9718;52.200;21.052;2022-09-09T08:14:19;13.50;99.90
19172;DHT22;9718;52.200;21.052;2022-09-09T08:16:47;13.60;99.90
19172;DHT22;9718;52.200;21.052;2022-09-09T08:19:15;13.60;99.90
19172;DHT22;9718;52.200;21.052;2022-09-09T08:21:44;13.60;99.90
19172;DHT22;9718;52.200;21.052;2022-09-09T08:24:12;13.60;99.90
19172;DHT22;9718;52.200;21.052;2022-09-09T08:26:43;13.60;99.90
19172;DHT22;9718;52.200;21.052;2022-09-09T08:29:12;13.60;99.90
19172;DHT22;9718;52.200;21.052;2022-09-09T08:31:45;13.60;99.90
19172;DHT22;9718;52.200;21.052;2022-09-09T08:34:14;13.60;99.90
19172;DHT22;9718;52.200;21.052;2022-09-09T08:36:44;13.60;99.90
19172;DHT22;9718;52.200;21.052;2022-09-09T08:39:13;13.70;99.90
19172;DHT22;9718;52.200;21.052;2022-09-09T08:45:03;13.60;99.90
19172;DHT22;9718;52.200;21.052;2022-09-09T08:50:29;13.80;99.90
19172;DHT22;9718;52.200;21.052;2022-09-09T08:58:16;13.80;99.90
19172;DHT22;9718;52.200;21.052;2022-09-09T09:11:51;13.80;99.90
19172;DHT22;9718;52.200;21.052;2022-09-09T09:14:27;14.00;99.90
19172;DHT22;9718;52.200;21.052;2022-09-09T09:17:01;13.90;99.90
19172;DHT22;9718;52.200;21.052;2022-09-09T09:19:34;14.00;99.90
19172;DHT22;9718;52.200;21.052;2022-09-09T09:24:52;14.10;99.90
19172;DHT22;9718;52.200;21.052;2022-09-09T09:29:57;14.10;99.90
19172;DHT22;9718;52.200;21.052;2022-09-09T09:33:08;14.00;99.90
19172;DHT22;9718;52.200;21.052;2022-09-09T09:35:41;14.00;99.90
19172;DHT22;9718;52.200;21.052;2022-09-09T09:38:25;14.00;99.90
19172;DHT22;9718;52.200;21.052;2022-09-09T09:41:14;14.10;99.90
19172;DHT22;9718;52.200;21.052;2022-09-09T09:43:53;14.10;99.90
19172;DHT22;9718;52.200;21.052;2022-09-09T09:46:24;14.10;99.90
19172;DHT22;9718;52.200;21.052;2022-09-09T09:49:04;14.10;99.90
19172;DHT22;9718;52.200;21.052;2022-09-09T09:51:33;14.20;99.90
19172;DHT22;9718;52.200;21.052;2022-09-09T09:54:41;14.20;99.90
19172;DHT22;9718;52.200;21.052;2022-09-09T09:57:11;14.30;99.90
19172;DHT22;9718;52.200;21.052;2022-09-09T09:59:38;14.30;99.90
19172;DHT22;9718;52.200;21.052;2022-09-09T10:02:21;14.30;99.90
19172;DHT22;9718;52.200;21.052;2022-09-09T10:05:22;14.40;99.90
19172;DHT22;9718;52.200;21.052;2022-09-09T10:08:12;14.40;99.90
19172;DHT22;9718;52.200;21.052;2022-09-09T10:18:46;14.60;99.90
19172;DHT22;9718;52.200;21.052;2022-09-09T10:32:33;14.40;99.90
19172;DHT22;9718;52.200;21.052;2022-09-09T10:35:26;14.50;99.90
19172;DHT22;9718;52.200;21.052;2022-09-09T10:41:00;14.60;99.90
19172;DHT22;9718;52.200;21.052;2022-09-09T10:46:31;14.50;99.90
19172;DHT22;9718;52.200;21.052;2022-09-09T10:52:18;14.50;99.90
19172;DHT22;9718;52.200;21.052;2022-09-09T10:55:10;14.40;99.90
19172;DHT22;9718;52.200;21.052;2022-09-09T11:00:21;14.40;99.90
19172;DHT22;9718;52.200;21.052;2022-09-09T11:02:55;14.40;99.90
19172;DHT22;9718;52.200;21.052;2022-09-09T11:05:42;14.40;99.90
19172;DHT22;9718;52.200;21.052;2022-09-09T11:08:28;14.50;99.90
19172;DHT22;9718;52.200;21.052;2022-09-09T11:21:55;14.60;99.90
19172;DHT22;9718;52.200;21.052;2022-09-09T11:24:29;14.60;99.90
19172;DHT22;9718;52.200;21.052;2022-09-09T11:27:09;14.60;99.90
19172;DHT22;9718;52.200;21.052;2022-09-09T11:33:24;14.70;99.90
19172;DHT22;9718;52.200;21.052;2022-09-09T11:41:41;14.70;99.90
19172;DHT22;9718;52.200;21.052;2022-09-09T11:44:13;14.80;99.90
19172;DHT22;9718;52.200;21.052;2022-09-09T11:46:47;14.80;99.90
19172;DHT22;9718;52.200;21.052;2022-09-09T11:49:26;14.90;99.90
19172;DHT22;9718;52.200;21.052;2022-09-09T11:51:55;14.90;99.90
19172;DHT22;9718;52.200;21.052;2022-09-09T11:54:30;14.90;99.90
19172;DHT22;9718;52.200;21.052;2022-09-09T11:56:59;14.90;99.90
19172;DHT22;9718;52.200;21.052;2022-09-09T11:59:29;15.00;99.90
19172;DHT22;9718;52.200;21.052;2022-09-09T12:02:14;14.90;99.90
19172;DHT22;9718;52.200;21.052;2022-09-09T12:10:19;15.10;99.90
19172;DHT22;9718;52.200;21.052;2022-09-09T12:12:47;15.00;99.90
19172;DHT22;9718;52.200;21.052;2022-09-09T12:15:20;15.00;99.90
19172;DHT22;9718;52.200;21.052;2022-09-09T12:17:50;15.00;99.90
19172;DHT22;9718;52.200;21.052;2022-09-09T12:20:34;15.00;99.90
19172;DHT22;9718;52.200;21.052;2022-09-09T12:23:18;14.90;99.90
19172;DHT22;9718;52.200;21.052;2022-09-09T12:37:05;14.90;99.90
19172;DHT22;9718;52.200;21.052;2022-09-09T12:39:44;14.90;99.90
19172;DHT22;9718;52.200;21.052;2022-09-09T12:42:21;14.90;99.90
19172;DHT22;9718;52.200;21.052;2022-09-09T12:44:58;14.90;99.90
19172;DHT22;9718;52.200;21.052;2022-09-09T12:50:23;15.10;99.90
19172;DHT22;9718;52.200;21.052;2022-09-09T12:52:57;15.10;99.90
19172;DHT22;9718;52.200;21.052;2022-09-09T12:55:31;15.20;99.90
19172;DHT22;9718;52.200;21.052;2022-09-09T12:58:01;15.30;99.90
19172;DHT22;9718;52.200;21.052;2022-09-09T13:00:34;15.20;99.90
19172;DHT22;9718;52.200;21.052;2022-09-09T13:03:17;15.20;99.90
19172;DHT22;9718;52.200;21.052;2022-09-09T13:05:44;15.20;99.90
19172;DHT22;9718;52.200;21.052;2022-09-09T13:08:15;15.10;99.90
19172;DHT22;9718;52.200;21.052;2022-09-09T13:13:37;15.10;99.90
19172;DHT22;9718;52.200;21.052;2022-09-09T13:16:16;15.00;99.90
19172;DHT22;9718;52.200;21.052;2022-09-09T13:18:45;15.00;99.90
19172;DHT22;9718;52.200;21.052;2022-09-09T13:21:13;15.00;99.90
19172;DHT22;9718;52.200;21.052;2022-09-09T13:23:41;15.00;99.90
19172;DHT22;9718;52.200;21.052;2022-09-09T13:26:26;15.00;99.90
19172;DHT22;9718;52.200;21.052;2022-09-09T13:28:54;14.90;99.90
19172;DHT22;9718;52.200;21.052;2022-09-09T13:31:30;14.80;99.90
19172;DHT22;9718;52.200;21.052;2022-09-09T13:33:58;14.90;99.90
19172;DHT22;9718;52.200;21.052;2022-09-09T13:36:31;14.80;99.90
19172;DHT22;9718;52.200;21.052;2022-09-09T13:39:00;14.80;99.90
19172;DHT22;9718;52.200;21.052;2022-09-09T13:41:36;14.80;99.90
19172;DHT22;9718;52.200;21.052;2022-09-09T13:44:20;14.80;99.90
19172;DHT22;9718;52.200;21.052;2022-09-09T13:49:40;14.90;99.90
19172;DHT22;9718;52.200;21.052;2022-09-09T13:52:16;14.90;99.90
19172;DHT22;9718;52.200;21.052;2022-09-09T13:54:50;15.00;99.90
19172;DHT22;9718;52.200;21.052;2022-09-09T13:57:20;14.90;99.90
19172;DHT22;9718;52.200;21.052;2022-09-09T13:59:48;14.80;99.90
19172;DHT22;9718;52.200;21.052;2022-09-09T14:02:32;14.80;99.90
19172;DHT22;9718;52.200;21.052;2022-09-09T14:05:01;14.90;99.90
19172;DHT22;9718;52.200;21.052;2022-09-09T14:07:28;14.90;99.90
19172;DHT22;9718;52.200;21.052;2022-09-09T14:09:56;14.90;99.90
19172;DHT22;9718;52.200;21.052;2022-09-09T14:12:24;14.80;99.90
19172;DHT22;9718;52.200;21.052;2022-09-09T14:14:51;14.80;99.90
19172;DHT22;9718;52.200;21.052;2022-09-09T14:17:18;14.80;99.90
19172;DHT22;9718;52.200;21.052;2022-09-09T14:19:45;14.70;99.90
19172;DHT22;9718;52.200;21.052;2022-09-09T14:22:13;14.80;99.90
19172;DHT22;9718;52.200;21.052;2022-09-09T14:24:41;14.80;99.90
19172;DHT22;9718;52.200;21.052;2022-09-09T14:27:09;14.70;99.90
19172;DHT22;9718;52.200;21.052;2022-09-09T14:29:36;14.70;99.90
19172;DHT22;9718;52.200;21.052;2022-09-09T14:32:04;14.80;99.90
19172;DHT22;9718;52.200;21.052;2022-09-09T14:34:36;14.70;99.90
19172;DHT22;9718;52.200;21.052;2022-09-09T14:37:04;14.80;99.90
19172;DHT22;9718;52.200;21.052;2022-09-09T14:39:31;14.80;99.90
19172;DHT22;9718;52.200;21.052;2022-09-09T14:41:59;15.00;99.90
19172;DHT22;9718;52.200;21.052;2022-09-09T14:44:26;14.90;99.90
19172;DHT22;9718;52.200;21.052;2022-09-09T14:46:54;15.00;99.90
19172;DHT22;9718;52.200;21.052;2022-09-09T14:49:22;15.10;99.90
19172;DHT22;9718;52.200;21.052;2022-09-09T14:51:49;15.10;99.90
19172;DHT22;9718;52.200;21.052;2022-09-09T14:54:17;15.10;99.90
19172;DHT22;9718;52.200;21.052;2022-09-09T14:56:44;15.10;99.90
19172;DHT22;9718;52.200;21.052;2022-09-09T14:59:12;15.10;99.90
19172;DHT22;9718;52.200;21.052;2022-09-09T15:01:40;15.10;99.90
19172;DHT22;9718;52.200;21.052;2022-09-09T15:04:12;15.10;99.90
19172;DHT22;9718;52.200;21.052;2022-09-09T15:06:42;15.20;99.90
19172;DHT22;9718;52.200;21.052;2022-09-09T15:09:14;15.10;99.90
19172;DHT22;9718;52.200;21.052;2022-09-09T15:11:42;15.20;99.90
19172;DHT22;9718;52.200;21.052;2022-09-09T15:14:11;15.10;99.90
19172;DHT22;9718;52.200;21.052;2022-09-09T15:16:39;15.10;99.90
19172;DHT22;9718;52.200;21.052;2022-09-09T15:19:07;14.90;99.90
19172;DHT22;9718;52.200;21.052;2022-09-09T15:21:37;15.00;99.90
19172;DHT22;9718;52.200;21.052;2022-09-09T15:24:11;15.00;99.90
19172;DHT22;9718;52.200;21.052;2022-09-09T15:26:41;15.00;99.90
19172;DHT22;9718;52.200;21.052;2022-09-09T15:29:08;15.10;99.90
19172;DHT22;9718;52.200;21.052;2022-09-09T15:31:36;15.10;99.90
19172;DHT22;9718;52.200;21.052;2022-09-09T15:34:06;15.10;99.90
19172;DHT22;9718;52.200;21.052;2022-09-09T15:36:41;15.10;99.90
19172;DHT22;9718;52.200;21.052;2022-09-09T15:39:11;15.10;99.90
19172;DHT22;9718;52.200;21.052;2022-09-09T15:41:43;15.20;99.90
19172;DHT22;9718;52.200;21.052;2022-09-09T15:44:11;15.10;99.90
19172;DHT22;9718;52.200;21.052;2022-09-09T15:46:40;15.10;99.90
19172;DHT22;9718;52.200;21.052;2022-09-09T15:51:46;15.00;99.90
19172;DHT22;9718;52.200;21.052;2022-09-09T15:54:15;15.10;99.90
19172;DHT22;9718;52.200;21.052;2022-09-09T15:56:45;14.90;99.90
19172;DHT22;9718;52.200;21.052;2022-09-09T15:59:13;14.90;99.90
19172;DHT22;9718;52.200;21.052;2022-09-09T16:01:42;14.90;99.90
19172;DHT22;9718;52.200;21.052;2022-09-09T16:04:11;14.90;99.90
19172;DHT22;9718;52.200;21.052;2022-09-09T16:06:38;15.00;99.90
19172;DHT22;9718;52.200;21.052;2022-09-09T16:09:07;15.10;99.90
19172;DHT22;9718;52.200;21.052;2022-09-09T16:11:36;15.10;99.90
19172;DHT22;9718;52.200;21.052;2022-09-09T16:14:04;15.10;99.90
19172;DHT22;9718;52.200;21.052;2022-09-09T16:16:34;15.10;99.90
19172;DHT22;9718;52.200;21.052;2022-09-09T16:19:07;15.10;99.90
19172;DHT22;9718;52.200;21.052;2022-09-09T16:21:40;15.00;99.90
19172;DHT22;9718;52.200;21.052;2022-09-09T16:24:13;15.00;99.90
19172;DHT22;9718;52.200;21.052;2022-09-09T16:26:43;15.10;99.90
19172;DHT22;9718;52.200;21.052;2022-09-09T16:29:14;15.00;99.90
19172;DHT22;9718;52.200;21.052;2022-09-09T16:31:43;14.80;99.90
19172;DHT22;9718;52.200;21.052;2022-09-09T16:34:11;14.80;99.90
19172;DHT22;9718;52.200;21.052;2022-09-09T16:36:39;14.80;99.90
19172;DHT22;9718;52.200;21.052;2022-09-09T16:39:13;14.80;99.90
19172;DHT22;9718;52.200;21.052;2022-09-09T16:41:42;14.80;99.90
19172;DHT22;9718;52.200;21.052;2022-09-09T16:44:12;14.70;99.90
19172;DHT22;9718;52.200;21.052;2022-09-09T16:46:42;14.70;99.90
19172;DHT22;9718;52.200;21.052;2022-09-09T16:49:11;14.60;99.90
19172;DHT22;9718;52.200;21.052;2022-09-09T16:51:45;14.60;99.90
19172;DHT22;9718;52.200;21.052;2022-09-09T16:54:15;14.60;99.90
19172;DHT22;9718;52.200;21.052;2022-09-09T16:56:47;14.60;99.90
19172;DHT22;9718;52.200;21.052;2022-09-09T16:59:17;14.50;99.90
19172;DHT22;9718;52.200;21.052;2022-09-09T17:01:46;14.50;99.90
19172;DHT22;9718;52.200;21.052;2022-09-09T17:04:22;14.50;99.90
19172;DHT22;9718;52.200;21.052;2022-09-09T17:06:53;14.50;99.90
19172;DHT22;9718;52.200;21.052;2022-09-09T17:09:22;14.50;99.90
19172;DHT22;9718;52.200;21.052;2022-09-09T17:11:50;14.40;99.90
19172;DHT22;9718;52.200;21.052;2022-09-09T17:14:19;14.40;99.90
19172;DHT22;9718;52.200;21.052;2022-09-09T17:16:48;14.40;99.90
19172;DHT22;9718;52.200;21.052;2022-09-09T17:19:15;14.40;99.90
19172;DHT22;9718;52.200;21.052;2022-09-09T17:21:43;14.40;99.90
19172;DHT22;9718;52.200;21.052;2022-09-09T17:24:31;14.40;99.90
19172;DHT22;9718;52.200;21.052;2022-09-09T17:27:00;14.40;99.90
19172;DHT22;9718;52.200;21.052;2022-09-09T17:29:28;14.40;99.90
19172;DHT22;9718;52.200;21.052;2022-09-09T17:31:55;14.40;99.90
19172;DHT22;9718;52.200;21.052;2022-09-09T17:34:23;14.40;99.90
19172;DHT22;9718;52.200;21.052;2022-09-09T17:36:52;14.40;99.90
19172;DHT22;9718;52.200;21.052;2022-09-09T17:39:19;14.40;99.90
19172;DHT22;9718;52.200;21.052;2022-09-09T17:41:46;14.50;99.90
19172;DHT22;9718;52.200;21.052;2022-09-09T17:44:13;14.40;99.90
19172;DHT22;9718;52.200;21.052;2022-09-09T17:46:43;14.40;99.90
19172;DHT22;9718;52.200;21.052;2022-09-09T17:49:13;14.50;99.90
19172;DHT22;9718;52.200;21.052;2022-09-09T17:51:41;14.50;99.90
19172;DHT22;9718;52.200;21.052;2022-09-09T17:54:17;14.40;99.90
19172;DHT22;9718;52.200;21.052;2022-09-09T17:56:46;14.40;99.90
19172;DHT22;9718;52.200;21.052;2022-09-09T17:59:16;14.40;99.90
19172;DHT22;9718;52.200;21.052;2022-09-09T18:01:46;14.40;99.90
19172;DHT22;9718;52.200;21.052;2022-09-09T18:04:15;14.40;99.90
19172;DHT22;9718;52.200;21.052;2022-09-09T18:06:46;14.40;99.90
19172;DHT22;9718;52.200;21.052;2022-09-09T18:09:16;14.30;99.90
19172;DHT22;9718;52.200;21.052;2022-09-09T18:11:48;14.30;99.90
19172;DHT22;9718;52.200;21.052;2022-09-09T18:14:21;14.30;99.90
19172;DHT22;9718;52.200;21.052;2022-09-09T18:16:49;14.30;99.90
19172;DHT22;9718;52.200;21.052;2022-09-09T18:19:19;14.30;99.90
19172;DHT22;9718;52.200;21.052;2022-09-09T18:21:50;14.30;99.90
19172;DHT22;9718;52.200;21.052;2022-09-09T18:24:20;14.30;99.90
19172;DHT22;9718;52.200;21.052;2022-09-09T18:26:49;14.30;99.90
19172;DHT22;9718;52.200;21.052;2022-09-09T18:29:19;14.40;99.90
19172;DHT22;9718;52.200;21.052;2022-09-09T18:31:48;14.40;99.90